sensor_id;sensor_type;location;lat;lon;timestamp;temperature;humidity
38221;DHT22;24023;51.280;7.148;2022-12-07T00:00:12;6.3;99.9
38221;DHT22;24023;51.280;7.148;2022-12-07T00:05:07;6.4;99.9
38221;DHT22;24023;51.280;7.148;2022-12-07T00:10:08;6.4;99.9
38221;DHT22;24023;51.280;7.148;2022-12-07T00:15:08;6.4;99.9
38221;DHT22;24023;51.280;7.148;2022-12-07T00:20:09;6.4;99.9
38221;DHT22;24023;51.280;7.148;2022-12-07T00:25:07;6.4;99.9
38221;DHT22;24023;51.280;7.148;2022-12-07T00:30:10;6.5;99.9
38221;DHT22;24023;51.280;7.148;2022-12-07T00:35:07;6.5;99.9
38221;DHT22;24023;51.280;7.148;2022-12-07T00:40:09;6.4;99.9
38221;DHT22;24023;51.280;7.148;2022-12-07T00:45:09;6.4;99.9
38221;DHT22;24023;51.280;7.148;2022-12-07T00:50:08;6.4;99.9
38221;DHT22;24023;51.280;7.148;2022-12-07T00:55:07;6.3;99.9
38221;DHT22;24023;51.280;7.148;2022-12-07T01:00:11;6.3;99.9
38221;DHT22;24023;51.280;7.148;2022-12-07T01:05:08;6.5;99.9
38221;DHT22;24023;51.280;7.148;2022-12-07T01:10:09;6.5;99.9
38221;DHT22;24023;51.280;7.148;2022-12-07T01:15:09;6.5;99.9
38221;DHT22;24023;51.280;7.148;2022-12-07T01:20:09;6.5;99.9
38221;DHT22;24023;51.280;7.148;2022-12-07T01:25:07;6.4;99.9
38221;DHT22;24023;51.280;7.148;2022-12-07T01:30:10;6.4;99.9
38221;DHT22;24023;51.280;7.148;2022-12-07T01:35:07;6.5;99.9
38221;DHT22;24023;51.280;7.148;2022-12-07T01:40:10;6.5;99.9
38221;DHT22;24023;51.280;7.148;2022-12-07T01:45:42;6.5;99.9
38221;DHT22;24023;51.280;7.148;2022-12-07T01:50:08;6.5;99.9
38221;DHT22;24023;51.280;7.148;2022-12-07T01:55:09;6.4;99.9
38221;DHT22;24023;51.280;7.148;2022-12-07T02:00:12;6.4;99.9
38221;DHT22;24023;51.280;7.148;2022-12-07T02:05:07;6.5;99.9
38221;DHT22;24023;51.280;7.148;2022-12-07T02:10:13;6.5;99.9
38221;DHT22;24023;51.280;7.148;2022-12-07T02:15:08;6.4;99.9
38221;DHT22;24023;51.280;7.148;2022-12-07T02:20:20;6.4;99.9
38221;DHT22;24023;51.280;7.148;2022-12-07T02:25:09;6.3;99.9
38221;DHT22;24023;51.280;7.148;2022-12-07T02:30:11;6.3;99.9
38221;DHT22;24023;51.280;7.148;2022-12-07T02:35:10;6.4;99.9
38221;DHT22;24023;51.280;7.148;2022-12-07T02:40:11;6.4;99.9
38221;DHT22;24023;51.280;7.148;2022-12-07T02:45:10;6.4;99.9
38221;DHT22;24023;51.280;7.148;2022-12-07T02:50:09;6.4;99.9
38221;DHT22;24023;51.280;7.148;2022-12-07T02:55:08;6.5;99.9
38221;DHT22;24023;51.280;7.148;2022-12-07T03:00:14;6.5;99.9
38221;DHT22;24023;51.280;7.148;2022-12-07T03:05:15;6.5;99.9
38221;DHT22;24023;51.280;7.148;2022-12-07T03:10:11;6.5;99.9
38221;DHT22;24023;51.280;7.148;2022-12-07T03:15:12;6.5;99.9
38221;DHT22;24023;51.280;7.148;2022-12-07T03:20:11;6.9;99.6
38221;DHT22;24023;51.280;7.148;2022-12-07T03:25:09;6.9;99.6
38221;DHT22;24023;51.280;7.148;2022-12-07T03:30:14;6.9;99.6
38221;DHT22;24023;51.280;7.148;2022-12-07T03:35:11;6.6;99.9
38221;DHT22;24023;51.280;7.148;2022-12-07T03:40:11;6.6;99.9
38221;DHT22;24023;51.280;7.148;2022-12-07T03:45:11;6.4;99.9
38221;DHT22;24023;51.280;7.148;2022-12-07T03:50:13;6.4;99.9
38221;DHT22;24023;51.280;7.148;2022-12-07T03:55:09;6.5;99.9
38221;DHT22;24023;51.280;7.148;2022-12-07T04:00:11;6.5;99.9
38221;DHT22;24023;51.280;7.148;2022-12-07T04:05:08;6.5;99.9
38221;DHT22;24023;51.280;7.148;2022-12-07T04:10:09;6.4;99.9
38221;DHT22;24023;51.280;7.148;2022-12-07T04:15:09;6.4;99.9
38221;DHT22;24023;51.280;7.148;2022-12-07T04:20:09;6.7;99.9
38221;DHT22;24023;51.280;7.148;2022-12-07T04:25:07;6.7;99.9
38221;DHT22;24023;51.280;7.148;2022-12-07T04:30:10;6.7;99.9
38221;DHT22;24023;51.280;7.148;2022-12-07T04:35:07;6.6;99.9
38221;DHT22;24023;51.280;7.148;2022-12-07T04:40:09;6.6;99.9
38221;DHT22;24023;51.280;7.148;2022-12-07T04:45:09;6.5;99.6
38221;DHT22;24023;51.280;7.148;2022-12-07T04:50:09;6.5;99.6
38221;DHT22;24023;51.280;7.148;2022-12-07T04:55:07;6.2;99.9
38221;DHT22;24023;51.280;7.148;2022-12-07T05:00:12;6.2;99.9
38221;DHT22;24023;51.280;7.148;2022-12-07T05:05:07;6.6;99.2
38221;DHT22;24023;51.280;7.148;2022-12-07T05:10:08;6.6;99.2
38221;DHT22;24023;51.280;7.148;2022-12-07T05:15:08;6.4;99.7
38221;DHT22;24023;51.280;7.148;2022-12-07T05:20:08;6.4;99.7
38221;DHT22;24023;51.280;7.148;2022-12-07T05:25:09;6.2;99.9
38221;DHT22;24023;51.280;7.148;2022-12-07T05:30:11;6.2;99.9
38221;DHT22;24023;51.280;7.148;2022-12-07T05:35:07;6.2;99.9
38221;DHT22;24023;51.280;7.148;2022-12-07T05:40:09;6.2;99.9
38221;DHT22;24023;51.280;7.148;2022-12-07T05:45:11;6.2;99.9
38221;DHT22;24023;51.280;7.148;2022-12-07T05:50:08;6.2;99.9
38221;DHT22;24023;51.280;7.148;2022-12-07T05:55:07;6.2;99.9
38221;DHT22;24023;51.280;7.148;2022-12-07T06:00:12;6.2;99.9
38221;DHT22;24023;51.280;7.148;2022-12-07T06:05:07;6.1;99.9
38221;DHT22;24023;51.280;7.148;2022-12-07T06:10:09;6.1;99.9
38221;DHT22;24023;51.280;7.148;2022-12-07T06:15:09;6.1;99.9
38221;DHT22;24023;51.280;7.148;2022-12-07T06:20:08;6.2;99.8
38221;DHT22;24023;51.280;7.148;2022-12-07T06:25:08;6.2;99.8
38221;DHT22;24023;51.280;7.148;2022-12-07T06:30:11;6.2;99.9
38221;DHT22;24023;51.280;7.148;2022-12-07T06:35:07;6.2;99.9
38221;DHT22;24023;51.280;7.148;2022-12-07T06:40:09;6.2;99.9
38221;DHT22;24023;51.280;7.148;2022-12-07T06:45:10;6.0;99.9
38221;DHT22;24023;51.280;7.148;2022-12-07T06:50:09;6.0;99.9
38221;DHT22;24023;51.280;7.148;2022-12-07T06:55:07;6.1;99.9
38221;DHT22;24023;51.280;7.148;2022-12-07T07:00:12;6.1;99.9
38221;DHT22;24023;51.280;7.148;2022-12-07T07:05:06;6.1;99.9
38221;DHT22;24023;51.280;7.148;2022-12-07T07:10:09;6.1;99.9
38221;DHT22;24023;51.280;7.148;2022-12-07T07:15:08;6.1;99.9
38221;DHT22;24023;51.280;7.148;2022-12-07T07:20:09;6.1;99.9
38221;DHT22;24023;51.280;7.148;2022-12-07T07:25:07;6.0;99.9
38221;DHT22;24023;51.280;7.148;2022-12-07T07:30:11;6.0;99.9
38221;DHT22;24023;51.280;7.148;2022-12-07T07:35:06;6.1;99.9
38221;DHT22;24023;51.280;7.148;2022-12-07T07:40:08;6.1;99.9
38221;DHT22;24023;51.280;7.148;2022-12-07T07:45:10;5.9;99.9
38221;DHT22;24023;51.280;7.148;2022-12-07T07:50:08;5.9;99.9
38221;DHT22;24023;51.280;7.148;2022-12-07T07:55:08;5.9;99.9
38221;DHT22;24023;51.280;7.148;2022-12-07T08:00:12;5.9;99.9
38221;DHT22;24023;51.280;7.148;2022-12-07T08:05:07;5.9;99.9
38221;DHT22;24023;51.280;7.148;2022-12-07T08:10:11;5.9;99.9
38221;DHT22;24023;51.280;7.148;2022-12-07T08:15:08;5.9;99.9
38221;DHT22;24023;51.280;7.148;2022-12-07T08:20:08;6.3;99.7
38221;DHT22;24023;51.280;7.148;2022-12-07T08:25:06;6.3;99.7
38221;DHT22;24023;51.280;7.148;2022-12-07T08:30:09;6.3;99.7
38221;DHT22;24023;51.280;7.148;2022-12-07T08:35:07;5.9;99.9
38221;DHT22;24023;51.280;7.148;2022-12-07T08:40:10;5.9;99.9
38221;DHT22;24023;51.280;7.148;2022-12-07T08:45:12;6.1;99.9
38221;DHT22;24023;51.280;7.148;2022-12-07T08:50:10;6.1;99.9
38221;DHT22;24023;51.280;7.148;2022-12-07T08:55:07;6.3;99.9
38221;DHT22;24023;51.280;7.148;2022-12-07T09:00:12;6.3;99.9
38221;DHT22;24023;51.280;7.148;2022-12-07T09:05:08;6.3;99.9
38221;DHT22;24023;51.280;7.148;2022-12-07T09:10:08;6.3;99.9
38221;DHT22;24023;51.280;7.148;2022-12-07T09:15:12;6.1;99.9
38221;DHT22;24023;51.280;7.148;2022-12-07T09:20:08;6.1;99.9
38221;DHT22;24023;51.280;7.148;2022-12-07T09:25:07;6.1;99.9
38221;DHT22;24023;51.280;7.148;2022-12-07T09:30:09;6.2;99.9
38221;DHT22;24023;51.280;7.148;2022-12-07T09:35:07;6.2;99.9
38221;DHT22;24023;51.280;7.148;2022-12-07T09:40:08;6.5;99.9
38221;DHT22;24023;51.280;7.148;2022-12-07T09:45:15;6.5;99.9
38221;DHT22;24023;51.280;7.148;2022-12-07T09:50:13;6.5;99.9
38221;DHT22;24023;51.280;7.148;2022-12-07T09:55:11;6.5;99.9
38221;DHT22;24023;51.280;7.148;2022-12-07T10:00:14;6.5;99.9
38221;DHT22;24023;51.280;7.148;2022-12-07T10:05:12;6.8;99.0
38221;DHT22;24023;51.280;7.148;2022-12-07T10:10:15;6.8;99.0
38221;DHT22;24023;51.280;7.148;2022-12-07T10:15:08;6.6;98.9
38221;DHT22;24023;51.280;7.148;2022-12-07T10:20:15;6.6;98.9
38221;DHT22;24023;51.280;7.148;2022-12-07T10:25:09;6.6;98.9
38221;DHT22;24023;51.280;7.148;2022-12-07T10:30:14;6.7;99.5
38221;DHT22;24023;51.280;7.148;2022-12-07T10:35:20;6.7;99.3
38221;DHT22;24023;51.280;7.148;2022-12-07T10:40:25;6.7;99.3
38221;DHT22;24023;51.280;7.148;2022-12-07T10:45:14;6.9;99.0
38221;DHT22;24023;51.280;7.148;2022-12-07T10:50:17;6.9;99.0
38221;DHT22;24023;51.280;7.148;2022-12-07T10:55:16;6.9;98.7
38221;DHT22;24023;51.280;7.148;2022-12-07T11:00:17;6.9;98.7
38221;DHT22;24023;51.280;7.148;2022-12-07T11:05:17;6.9;99.7
38221;DHT22;24023;51.280;7.148;2022-12-07T11:10:13;6.9;99.7
38221;DHT22;24023;51.280;7.148;2022-12-07T11:15:13;6.8;99.5
38221;DHT22;24023;51.280;7.148;2022-12-07T11:20:18;6.8;99.5
38221;DHT22;24023;51.280;7.148;2022-12-07T11:25:17;6.7;99.5
38221;DHT22;24023;51.280;7.148;2022-12-07T11:30:15;6.7;99.5
38221;DHT22;24023;51.280;7.148;2022-12-07T11:35:11;6.8;99.0
38221;DHT22;24023;51.280;7.148;2022-12-07T11:40:17;6.8;99.0
38221;DHT22;24023;51.280;7.148;2022-12-07T11:45:16;7.1;98.9
38221;DHT22;24023;51.280;7.148;2022-12-07T11:50:21;7.1;98.9
38221;DHT22;24023;51.280;7.148;2022-12-07T11:55:16;7.1;98.9
38221;DHT22;24023;51.280;7.148;2022-12-07T12:05:16;7.2;98.8
38221;DHT22;24023;51.280;7.148;2022-12-07T12:10:17;7.0;99.5
38221;DHT22;24023;51.280;7.148;2022-12-07T12:15:20;7.0;99.5
38221;DHT22;24023;51.280;7.148;2022-12-07T12:20:19;7.2;98.8
38221;DHT22;24023;51.280;7.148;2022-12-07T12:25:15;7.2;98.8
38221;DHT22;24023;51.280;7.148;2022-12-07T12:30:26;7.2;98.8
38221;DHT22;24023;51.280;7.148;2022-12-07T12:35:29;7.3;98.2
38221;DHT22;24023;51.280;7.148;2022-12-07T12:40:42;7.3;98.2
38221;DHT22;24023;51.280;7.148;2022-12-07T12:45:25;7.3;98.5
38221;DHT22;24023;51.280;7.148;2022-12-07T12:50:16;7.3;98.5
38221;DHT22;24023;51.280;7.148;2022-12-07T12:55:13;7.3;98.5
38221;DHT22;24023;51.280;7.148;2022-12-07T13:00:17;7.1;98.6
38221;DHT22;24023;51.280;7.148;2022-12-07T13:05:19;7.1;98.6
38221;DHT22;24023;51.280;7.148;2022-12-07T13:10:21;7.3;97.9
38221;DHT22;24023;51.280;7.148;2022-12-07T13:15:31;7.3;97.9
38221;DHT22;24023;51.280;7.148;2022-12-07T13:20:08;7.3;97.9
38221;DHT22;24023;51.280;7.148;2022-12-07T13:25:11;7.3;97.5
38221;DHT22;24023;51.280;7.148;2022-12-07T13:30:14;7.3;97.5
38221;DHT22;24023;51.280;7.148;2022-12-07T13:35:28;7.3;97.2
38221;DHT22;24023;51.280;7.148;2022-12-07T13:40:17;7.3;97.2
38221;DHT22;24023;51.280;7.148;2022-12-07T13:45:21;7.3;97.2
38221;DHT22;24023;51.280;7.148;2022-12-07T13:50:22;7.2;97.0
38221;DHT22;24023;51.280;7.148;2022-12-07T13:55:14;7.2;97.1
38221;DHT22;24023;51.280;7.148;2022-12-07T14:00:16;7.2;97.1
38221;DHT22;24023;51.280;7.148;2022-12-07T14:05:09;7.0;96.5
38221;DHT22;24023;51.280;7.148;2022-12-07T14:10:23;7.0;96.5
38221;DHT22;24023;51.280;7.148;2022-12-07T14:15:19;7.0;96.5
38221;DHT22;24023;51.280;7.148;2022-12-07T14:20:29;6.6;97.7
38221;DHT22;24023;51.280;7.148;2022-12-07T14:25:18;6.6;97.7
38221;DHT22;24023;51.280;7.148;2022-12-07T14:30:16;6.3;98.1
38221;DHT22;24023;51.280;7.148;2022-12-07T14:35:10;6.3;98.1
38221;DHT22;24023;51.280;7.148;2022-12-07T14:40:13;5.5;99.6
38221;DHT22;24023;51.280;7.148;2022-12-07T14:45:15;5.5;99.6
38221;DHT22;24023;51.280;7.148;2022-12-07T14:50:11;5.5;99.6
38221;DHT22;24023;51.280;7.148;2022-12-07T14:55:13;5.2;99.9
38221;DHT22;24023;51.280;7.148;2022-12-07T15:00:15;5.2;99.9
38221;DHT22;24023;51.280;7.148;2022-12-07T15:05:07;5.5;99.9
38221;DHT22;24023;51.280;7.148;2022-12-07T15:10:14;5.5;99.9
38221;DHT22;24023;51.280;7.148;2022-12-07T15:15:09;5.4;99.9
38221;DHT22;24023;51.280;7.148;2022-12-07T15:20:11;5.4;99.9
38221;DHT22;24023;51.280;7.148;2022-12-07T15:25:09;4.8;99.9
38221;DHT22;24023;51.280;7.148;2022-12-07T15:30:10;4.8;99.9
38221;DHT22;24023;51.280;7.148;2022-12-07T15:35:07;4.8;99.9
38221;DHT22;24023;51.280;7.148;2022-12-07T15:40:09;4.8;99.9
38221;DHT22;24023;51.280;7.148;2022-12-07T15:45:11;4.8;99.9
38221;DHT22;24023;51.280;7.148;2022-12-07T15:50:15;5.1;99.9
38221;DHT22;24023;51.280;7.148;2022-12-07T15:55:07;5.1;99.9
38221;DHT22;24023;51.280;7.148;2022-12-07T16:00:11;5.2;99.9
38221;DHT22;24023;51.280;7.148;2022-12-07T16:05:07;5.2;99.9
38221;DHT22;24023;51.280;7.148;2022-12-07T16:10:09;5.2;99.9
38221;DHT22;24023;51.280;7.148;2022-12-07T16:15:08;5.3;99.9
38221;DHT22;24023;51.280;7.148;2022-12-07T16:20:09;5.3;99.9
38221;DHT22;24023;51.280;7.148;2022-12-07T16:25:07;5.2;99.9
38221;DHT22;24023;51.280;7.148;2022-12-07T16:30:14;5.2;99.9
38221;DHT22;24023;51.280;7.148;2022-12-07T16:35:07;5.2;99.9
38221;DHT22;24023;51.280;7.148;2022-12-07T16:40:09;5.2;99.9
38221;DHT22;24023;51.280;7.148;2022-12-07T16:45:10;5.3;99.9
38221;DHT22;24023;51.280;7.148;2022-12-07T16:50:09;5.3;99.9
38221;DHT22;24023;51.280;7.148;2022-12-07T16:55:07;5.4;99.9
38221;DHT22;24023;51.280;7.148;2022-12-07T17:00:14;5.4;99.9
38221;DHT22;24023;51.280;7.148;2022-12-07T17:05:07;5.9;99.9
38221;DHT22;24023;51.280;7.148;2022-12-07T17:10:08;5.9;99.9
38221;DHT22;24023;51.280;7.148;2022-12-07T17:15:22;6.1;99.9
38221;DHT22;24023;51.280;7.148;2022-12-07T17:20:09;6.1;99.9
38221;DHT22;24023;51.280;7.148;2022-12-07T17:25:07;6.1;99.9
38221;DHT22;24023;51.280;7.148;2022-12-07T17:30:10;6.1;99.9
38221;DHT22;24023;51.280;7.148;2022-12-07T17:35:08;6.1;99.9
38221;DHT22;24023;51.280;7.148;2022-12-07T17:40:10;6.2;99.9
38221;DHT22;24023;51.280;7.148;2022-12-07T17:45:11;6.2;99.9
38221;DHT22;24023;51.280;7.148;2022-12-07T17:50:09;6.2;99.9
38221;DHT22;24023;51.280;7.148;2022-12-07T17:55:07;6.2;99.9
38221;DHT22;24023;51.280;7.148;2022-12-07T18:00:12;6.6;99.9
38221;DHT22;24023;51.280;7.148;2022-12-07T18:05:07;6.6;99.9
38221;DHT22;24023;51.280;7.148;2022-12-07T18:10:09;6.6;99.9
38221;DHT22;24023;51.280;7.148;2022-12-07T18:15:08;6.5;99.6
38221;DHT22;24023;51.280;7.148;2022-12-07T18:20:09;6.5;99.6
38221;DHT22;24023;51.280;7.148;2022-12-07T18:25:07;6.5;99.6
38221;DHT22;24023;51.280;7.148;2022-12-07T18:30:12;6.5;99.6
38221;DHT22;24023;51.280;7.148;2022-12-07T18:35:07;6.6;99.9
38221;DHT22;24023;51.280;7.148;2022-12-07T18:40:09;6.6;99.9
38221;DHT22;24023;51.280;7.148;2022-12-07T18:45:09;6.1;99.9
38221;DHT22;24023;51.280;7.148;2022-12-07T18:50:09;6.1;99.9
38221;DHT22;24023;51.280;7.148;2022-12-07T18:55:07;6.3;99.7
38221;DHT22;24023;51.280;7.148;2022-12-07T19:00:12;6.3;99.7
38221;DHT22;24023;51.280;7.148;2022-12-07T19:05:06;6.3;99.7
38221;DHT22;24023;51.280;7.148;2022-12-07T19:10:09;6.1;99.9
38221;DHT22;24023;51.280;7.148;2022-12-07T19:15:10;6.1;99.9
38221;DHT22;24023;51.280;7.148;2022-12-07T19:20:11;6.1;99.9
38221;DHT22;24023;51.280;7.148;2022-12-07T19:25:07;6.1;99.9
38221;DHT22;24023;51.280;7.148;2022-12-07T19:30:11;6.2;99.7
38221;DHT22;24023;51.280;7.148;2022-12-07T19:35:08;6.2;99.7
38221;DHT22;24023;51.280;7.148;2022-12-07T19:40:08;6.2;99.7
38221;DHT22;24023;51.280;7.148;2022-12-07T19:45:11;6.1;99.9
38221;DHT22;24023;51.280;7.148;2022-12-07T19:50:08;6.1;99.9
38221;DHT22;24023;51.280;7.148;2022-12-07T19:55:06;6.2;99.9
38221;DHT22;24023;51.280;7.148;2022-12-07T20:00:13;6.2;99.9
38221;DHT22;24023;51.280;7.148;2022-12-07T20:05:07;6.2;99.9
38221;DHT22;24023;51.280;7.148;2022-12-07T20:10:08;6.0;99.9
38221;DHT22;24023;51.280;7.148;2022-12-07T20:15:09;6.0;99.9
38221;DHT22;24023;51.280;7.148;2022-12-07T20:20:09;6.1;99.9
38221;DHT22;24023;51.280;7.148;2022-12-07T20:25:06;6.1;99.9
38221;DHT22;24023;51.280;7.148;2022-12-07T20:30:09;6.1;99.9
38221;DHT22;24023;51.280;7.148;2022-12-07T20:35:06;6.3;99.4
38221;DHT22;24023;51.280;7.148;2022-12-07T20:40:09;6.3;99.4
38221;DHT22;24023;51.280;7.148;2022-12-07T20:45:12;6.2;99.8
38221;DHT22;24023;51.280;7.148;2022-12-07T20:50:08;6.2;99.8
38221;DHT22;24023;51.280;7.148;2022-12-07T20:55:07;6.2;99.8
38221;DHT22;24023;51.280;7.148;2022-12-07T21:00:12;6.3;99.3
38221;DHT22;24023;51.280;7.148;2022-12-07T21:05:06;6.3;99.3
38221;DHT22;24023;51.280;7.148;2022-12-07T21:10:08;6.3;99.2
38221;DHT22;24023;51.280;7.148;2022-12-07T21:15:08;6.3;99.2
38221;DHT22;24023;51.280;7.148;2022-12-07T21:20:08;6.2;99.7
38221;DHT22;24023;51.280;7.148;2022-12-07T21:25:08;6.2;99.7
38221;DHT22;24023;51.280;7.148;2022-12-07T21:30:09;6.2;99.7
38221;DHT22;24023;51.280;7.148;2022-12-07T21:35:07;6.3;99.3
38221;DHT22;24023;51.280;7.148;2022-12-07T21:40:09;6.3;99.3
38221;DHT22;24023;51.280;7.148;2022-12-07T21:45:11;5.9;99.7
38221;DHT22;24023;51.280;7.148;2022-12-07T21:50:09;5.9;99.7
38221;DHT22;24023;51.280;7.148;2022-12-07T21:55:07;5.9;99.7
38221;DHT22;24023;51.280;7.148;2022-12-07T22:00:12;6.1;99.6
38221;DHT22;24023;51.280;7.148;2022-12-07T22:05:06;6.1;99.6
38221;DHT22;24023;51.280;7.148;2022-12-07T22:10:08;6.0;99.7
38221;DHT22;24023;51.280;7.148;2022-12-07T22:15:08;6.0;99.7
38221;DHT22;24023;51.280;7.148;2022-12-07T22:20:09;6.0;99.7
38221;DHT22;24023;51.280;7.148;2022-12-07T22:25:07;6.1;99.6
38221;DHT22;24023;51.280;7.148;2022-12-07T22:30:11;6.1;99.6
38221;DHT22;24023;51.280;7.148;2022-12-07T22:35:07;6.1;99.6
38221;DHT22;24023;51.280;7.148;2022-12-07T22:40:08;6.1;99.6
38221;DHT22;24023;51.280;7.148;2022-12-07T22:45:09;6.0;99.7
38221;DHT22;24023;51.280;7.148;2022-12-07T22:50:09;6.0;99.7
38221;DHT22;24023;51.280;7.148;2022-12-07T22:55:07;6.0;99.7
38221;DHT22;24023;51.280;7.148;2022-12-07T23:00:15;6.1;99.7
38221;DHT22;24023;51.280;7.148;2022-12-07T23:05:09;6.1;99.7
38221;DHT22;24023;51.280;7.148;2022-12-07T23:10:08;6.1;99.3
38221;DHT22;24023;51.280;7.148;2022-12-07T23:15:09;6.1;99.3
38221;DHT22;24023;51.280;7.148;2022-12-07T23:20:08;6.1;99.3
38221;DHT22;24023;51.280;7.148;2022-12-07T23:25:06;5.9;99.9
38221;DHT22;24023;51.280;7.148;2022-12-07T23:30:09;5.9;99.9
38221;DHT22;24023;51.280;7.148;2022-12-07T23:35:07;6.1;99.5
38221;DHT22;24023;51.280;7.148;2022-12-07T23:40:09;6.1;99.5
38221;DHT22;24023;51.280;7.148;2022-12-07T23:45:11;6.1;99.5
38221;DHT22;24023;51.280;7.148;2022-12-07T23:50:09;6.0;99.5
38221;DHT22;24023;51.280;7.148;2022-12-07T23:55:08;6.0;99.5
